logo
Search for airport 
image banner adimage banner adimage banner ad
image banner ad

19VT - Monsalvat Farm Holdings Llc

Located in Barnard, United States

ICAO - 19VT, IATA -

Data provided by Airmate  

General information

Coordinates: N43°45'24" W72°36'47"
Elevation is 1496 feet MSL.
 
View others Airports in Vermont

Operational data

Special qualification required
Current time UTC:
Current local time:
Weather at : KLEB - Lebanon Muni ( 29 km )
METAR: KLEB 171753Z 18007KT 10SM BKN085 BKN100 25/17 A3009 RMK AO2 SLP184 T02500172 10250 20178 58006
TAF: KLEB 171722Z 1718/1818 22006KT P6SM OVC090 FM180900 16001KT 5SM BR SCT001 FM181200 20003KT P6SM BKN250
View NOTAMs / SUP AIP / TFR affecting this airport [VIEW]
Communications frequencies: [VIEW]

Runways:

Airport contact information

Address: Barnard United States

Satellite view of 19VT